createdAt,value
2019-03-24T00:03:46.009Z,6.70
2019-03-24T00:08:40.600Z,6.70
2019-03-24T00:13:35.212Z,6.80
2019-03-24T00:18:29.808Z,6.60
2019-03-24T00:23:24.785Z,6.50
2019-03-24T00:28:19.405Z,6.60
2019-03-24T00:33:13.999Z,6.70
2019-03-24T00:38:08.604Z,6.70
2019-03-24T00:43:03.300Z,6.70
2019-03-24T00:47:57.903Z,6.70
2019-03-24T00:52:52.506Z,6.60
2019-03-24T00:57:47.112Z,6.40
2019-03-24T01:02:41.709Z,6.40
2019-03-24T01:07:36.455Z,6.30
2019-03-24T01:12:31.053Z,6.20
2019-03-24T01:17:25.651Z,6.10
2019-03-24T01:22:20.251Z,6.10
2019-03-24T01:27:14.842Z,6.10
2019-03-24T01:32:09.456Z,6.00
2019-03-24T01:37:04.074Z,6.00
2019-03-24T01:41:58.676Z,5.90
2019-03-24T01:46:53.265Z,5.90
2019-03-24T01:51:47.864Z,5.90
2019-03-24T01:56:42.491Z,5.80
2019-03-24T02:01:37.102Z,5.70
2019-03-24T02:06:31.689Z,5.80
2019-03-24T02:11:26.359Z,5.70
2019-03-24T02:16:20.952Z,5.60
2019-03-24T02:21:15.535Z,5.60
2019-03-24T02:26:10.133Z,5.60
2019-03-24T02:31:04.887Z,5.50
2019-03-24T02:35:59.465Z,5.60
2019-03-24T02:40:54.058Z,5.60
2019-03-24T02:45:48.657Z,5.50
2019-03-24T02:50:43.324Z,5.40
2019-03-24T02:55:37.915Z,5.30
2019-03-24T03:00:32.536Z,5.40
2019-03-24T03:05:27.117Z,5.20
2019-03-24T03:10:21.716Z,5.30
2019-03-24T03:15:16.500Z,5.30
2019-03-24T03:20:12.292Z,5.00
2019-03-24T03:25:08.687Z,5.00
2019-03-24T03:30:03.562Z,4.80
2019-03-24T03:34:58.182Z,4.80
2019-03-24T03:39:57.453Z,4.70
2019-03-24T03:44:49.096Z,4.60
2019-03-24T03:49:43.681Z,4.70
2019-03-24T03:54:38.412Z,4.80
2019-03-24T03:59:32.999Z,4.90
2019-03-24T04:04:27.600Z,4.80
2019-03-24T04:09:22.193Z,4.80
2019-03-24T04:14:16.797Z,4.80
2019-03-24T04:19:11.383Z,4.70
2019-03-24T04:24:06.108Z,4.70
2019-03-24T04:29:00.717Z,4.60
2019-03-24T04:33:55.334Z,4.50
2019-03-24T04:38:49.919Z,4.40
2019-03-24T04:43:44.511Z,4.40
2019-03-24T04:48:39.101Z,4.40
2019-03-24T04:53:33.692Z,4.40
2019-03-24T04:58:28.281Z,4.40
2019-03-24T05:03:22.894Z,4.40
2019-03-24T05:08:17.819Z,4.40
2019-03-24T05:13:12.425Z,4.50
2019-03-24T05:18:07.112Z,4.60
2019-03-24T05:23:01.709Z,4.60
2019-03-24T05:27:56.321Z,4.60
2019-03-24T05:32:50.916Z,4.60
2019-03-24T05:37:45.584Z,4.70
2019-03-24T05:42:40.171Z,5.00
2019-03-24T05:47:37.364Z,5.40
2019-03-24T05:52:31.097Z,5.80
2019-03-24T05:57:25.670Z,6.30
2019-03-24T06:02:20.273Z,6.70
2019-03-24T06:07:14.864Z,7.20
2019-03-24T06:12:09.467Z,7.70
2019-03-24T06:17:04.045Z,8.10
2019-03-24T06:21:58.641Z,8.50
2019-03-24T06:26:53.234Z,8.80
2019-03-24T06:31:47.845Z,9.30
2019-03-24T06:36:42.506Z,9.80
2019-03-24T06:41:37.107Z,10.10
2019-03-24T06:46:31.699Z,9.80
2019-03-24T06:51:26.321Z,9.80
2019-03-24T06:56:20.906Z,10.00
2019-03-24T07:01:15.519Z,10.10
2019-03-24T07:06:10.081Z,9.90
2019-03-24T07:11:10.511Z,9.70
2019-03-24T07:16:00.988Z,9.60
2019-03-24T07:20:55.583Z,9.60
2019-03-24T07:25:50.608Z,9.50
2019-03-24T07:30:45.269Z,9.80
2019-03-24T07:35:39.998Z,10.00
2019-03-24T07:40:34.604Z,10.00
2019-03-24T07:45:29.245Z,10.10
2019-03-24T07:50:23.834Z,10.20
2019-03-24T07:55:18.445Z,10.40
2019-03-24T08:00:15.927Z,10.20
2019-03-24T08:05:10.658Z,10.20
2019-03-24T08:10:07.432Z,10.50
2019-03-24T08:15:02.060Z,10.70
2019-03-24T08:19:56.665Z,10.90
2019-03-24T08:24:51.270Z,10.90
2019-03-24T08:29:45.868Z,10.60
2019-03-24T08:34:40.479Z,10.90
2019-03-24T08:39:35.124Z,11.00
2019-03-24T08:44:29.768Z,11.30
2019-03-24T08:49:24.352Z,11.60
2019-03-24T08:54:18.972Z,11.90
2019-03-24T08:59:13.589Z,12.00
2019-03-24T09:04:08.241Z,12.20
2019-03-24T09:09:03.339Z,12.30
2019-03-24T09:13:57.947Z,12.40
2019-03-24T09:18:53.154Z,12.60
2019-03-24T09:23:48.055Z,12.70
2019-03-24T09:28:42.692Z,13.00
2019-03-24T09:33:37.275Z,13.20
2019-03-24T09:38:31.846Z,13.30
2019-03-24T09:43:26.454Z,13.50
2019-03-24T09:48:21.036Z,13.60
2019-03-24T09:53:15.646Z,13.50
2019-03-24T09:58:10.264Z,13.50
2019-03-24T10:03:05.121Z,13.80
2019-03-24T10:07:59.709Z,13.70
2019-03-24T10:12:54.308Z,13.80
2019-03-24T10:17:48.984Z,14.00
2019-03-24T10:22:43.590Z,13.90
2019-03-24T10:27:38.214Z,14.00
2019-03-24T10:32:32.848Z,14.10
2019-03-24T10:37:27.429Z,14.30
2019-03-24T10:42:22.022Z,14.40
2019-03-24T10:47:16.607Z,14.50
2019-03-24T10:52:11.209Z,14.70
2019-03-24T10:57:05.816Z,14.80
2019-03-24T11:02:00.443Z,14.70
2019-03-24T11:06:55.031Z,14.90
2019-03-24T11:11:49.644Z,15.10
2019-03-24T11:16:44.243Z,15.30
2019-03-24T11:21:38.879Z,15.30
2019-03-24T11:26:33.502Z,15.50
2019-03-24T11:31:28.103Z,15.60
2019-03-24T11:36:22.700Z,15.70
2019-03-24T11:41:17.309Z,15.70
2019-03-24T11:46:11.914Z,15.70
2019-03-24T11:51:06.599Z,15.90
2019-03-24T11:56:01.893Z,16.10
2019-03-24T12:00:56.482Z,16.00
2019-03-24T12:05:51.123Z,15.70
2019-03-24T12:10:45.714Z,15.60
2019-03-24T12:15:40.347Z,15.30
2019-03-24T12:20:34.945Z,15.30
2019-03-24T12:25:29.578Z,15.20
2019-03-24T12:30:24.265Z,15.10
2019-03-24T12:35:18.873Z,15.30
2019-03-24T12:40:13.974Z,15.40
2019-03-24T12:45:10.313Z,15.20
2019-03-24T12:50:09.852Z,15.30
2019-03-24T12:55:06.809Z,15.10
2019-03-24T13:00:01.418Z,15.00
2019-03-24T13:04:56.045Z,15.10
2019-03-24T13:09:50.650Z,15.20
2019-03-24T13:14:45.270Z,15.30
2019-03-24T13:19:39.853Z,15.40
2019-03-24T13:24:35.042Z,15.40
2019-03-24T13:29:29.646Z,15.60
2019-03-24T13:34:24.256Z,15.40
2019-03-24T13:39:18.837Z,15.60
2019-03-24T13:44:13.450Z,15.80
2019-03-24T13:49:08.035Z,16.00
2019-03-24T13:54:02.656Z,16.50
2019-03-24T13:58:57.257Z,16.50
2019-03-24T14:03:51.866Z,16.60
2019-03-24T14:08:46.467Z,16.70
2019-03-24T14:13:41.084Z,16.90
2019-03-24T14:18:35.667Z,17.10
2019-03-24T14:23:30.279Z,17.30
2019-03-24T14:28:24.871Z,17.60
2019-03-24T14:33:19.802Z,18.10
2019-03-24T14:38:14.477Z,18.40
2019-03-24T14:43:09.231Z,18.60
2019-03-24T14:48:03.805Z,18.80
2019-03-24T14:52:58.408Z,18.80
2019-03-24T14:57:53.008Z,19.00
2019-03-24T15:02:47.621Z,19.10
2019-03-24T15:07:42.229Z,19.00
2019-03-24T15:12:36.908Z,19.10
2019-03-24T15:17:31.562Z,19.10
2019-03-24T15:22:26.171Z,19.10
2019-03-24T15:27:20.758Z,19.10
2019-03-24T15:32:15.368Z,19.10
2019-03-24T15:37:09.972Z,18.90
2019-03-24T15:42:04.667Z,18.90
2019-03-24T15:46:59.284Z,18.90
2019-03-24T15:51:53.993Z,18.90
2019-03-24T15:56:48.596Z,18.90
2019-03-24T16:01:43.216Z,18.80
2019-03-24T16:06:37.815Z,18.70
2019-03-24T16:11:32.518Z,18.50
2019-03-24T16:16:27.127Z,18.50
2019-03-24T16:21:27.725Z,18.50
2019-03-24T16:26:18.044Z,18.40
2019-03-24T16:31:12.689Z,18.30
2019-03-24T16:36:07.311Z,18.10
2019-03-24T16:41:02.004Z,18.00
2019-03-24T16:45:56.617Z,17.80
2019-03-24T16:50:51.231Z,17.60
2019-03-24T16:55:45.919Z,17.50
2019-03-24T17:00:40.502Z,17.30
2019-03-24T17:05:35.094Z,17.30
2019-03-24T17:10:29.726Z,17.20
2019-03-24T17:15:24.300Z,17.20
2019-03-24T17:20:18.911Z,17.00
2019-03-24T17:25:13.562Z,16.80
2019-03-24T17:30:12.772Z,16.60
2019-03-24T17:35:08.578Z,16.50
2019-03-24T17:40:04.069Z,16.30
2019-03-24T17:44:58.668Z,16.10
2019-03-24T17:49:53.283Z,15.90
2019-03-24T17:54:47.879Z,15.70
2019-03-24T17:59:42.479Z,15.50
2019-03-24T18:04:37.082Z,15.30
2019-03-24T18:09:31.677Z,15.20
2019-03-24T18:14:26.283Z,15.00
2019-03-24T18:19:20.905Z,14.80
2019-03-24T18:24:15.509Z,14.70
2019-03-24T18:29:10.124Z,14.60
2019-03-24T18:34:04.900Z,14.50
2019-03-24T18:38:59.504Z,14.30
2019-03-24T18:43:54.085Z,14.20
2019-03-24T18:48:48.701Z,14.10
2019-03-24T18:53:43.304Z,13.90
2019-03-24T18:58:37.914Z,13.80
2019-03-24T19:03:32.506Z,13.70
2019-03-24T19:08:27.125Z,13.70
2019-03-24T19:13:21.723Z,13.60
2019-03-24T19:18:16.327Z,13.40
2019-03-24T19:23:10.921Z,13.30
2019-03-24T19:28:05.683Z,13.20
2019-03-24T19:33:00.591Z,13.10
2019-03-24T19:37:57.496Z,13.00
2019-03-24T19:42:52.976Z,12.90
2019-03-24T19:47:47.579Z,12.90
2019-03-24T19:52:44.945Z,12.90
2019-03-24T19:57:38.561Z,13.00
2019-03-24T20:02:33.159Z,12.90
2019-03-24T20:07:27.765Z,12.80
2019-03-24T20:12:22.355Z,12.80
2019-03-24T20:17:16.957Z,12.80
2019-03-24T20:22:11.563Z,12.90
2019-03-24T20:27:06.183Z,12.80
2019-03-24T20:32:00.776Z,12.70
2019-03-24T20:36:55.382Z,12.60
2019-03-24T20:41:49.974Z,12.60
2019-03-24T20:46:44.651Z,12.50
2019-03-24T20:51:39.249Z,12.40
2019-03-24T20:56:33.855Z,12.30
2019-03-24T21:01:28.477Z,12.20
2019-03-24T21:06:23.083Z,12.00
2019-03-24T21:11:17.671Z,11.70
2019-03-24T21:16:12.279Z,11.60
2019-03-24T21:21:07.009Z,11.50
2019-03-24T21:26:01.622Z,11.40
2019-03-24T21:30:56.203Z,11.20
2019-03-24T21:35:50.885Z,11.20
2019-03-24T21:40:45.540Z,11.40
2019-03-24T21:45:40.228Z,11.30
2019-03-24T21:50:34.989Z,11.20
2019-03-24T21:55:29.679Z,11.30
2019-03-24T22:00:34.044Z,11.40
2019-03-24T22:05:28.623Z,11.20
2019-03-24T22:10:23.227Z,10.90
2019-03-24T22:15:17.819Z,10.70
2019-03-24T22:20:12.734Z,10.70
2019-03-24T22:25:07.560Z,10.60
2019-03-24T22:30:02.172Z,10.40
2019-03-24T22:34:56.779Z,10.40
2019-03-24T22:39:51.387Z,10.60
2019-03-24T22:44:46.089Z,10.60
2019-03-24T22:49:40.728Z,10.50
2019-03-24T22:54:35.308Z,10.30
2019-03-24T22:59:29.917Z,10.30
2019-03-24T23:04:24.498Z,10.30
2019-03-24T23:09:19.173Z,10.20
2019-03-24T23:14:13.773Z,10.20
2019-03-24T23:19:08.364Z,10.10
2019-03-24T23:24:14.610Z,10.00
2019-03-24T23:28:59.268Z,9.80
2019-03-24T23:33:53.842Z,9.70
2019-03-24T23:38:48.447Z,9.70
2019-03-24T23:43:43.021Z,9.50
2019-03-24T23:48:37.617Z,9.40
2019-03-24T23:53:32.192Z,9.40
2019-03-24T23:58:39.964Z,9.50
